createdAt,value
2022-08-19T00:01:28.933Z,3.77
2022-08-19T00:05:32.981Z,4.00
2022-08-19T00:09:37.390Z,3.13
2022-08-19T00:13:40.005Z,6.60
2022-08-19T00:17:44.428Z,5.93
2022-08-19T00:21:48.121Z,4.77
2022-08-19T00:25:50.397Z,4.90
2022-08-19T00:29:52.855Z,7.07
2022-08-19T00:33:55.477Z,4.80
2022-08-19T00:37:57.850Z,4.70
2022-08-19T00:41:59.909Z,3.33
2022-08-19T00:46:05.701Z,4.00
2022-08-19T00:50:10.677Z,4.10
2022-08-19T00:54:14.122Z,6.23
2022-08-19T00:58:20.126Z,4.83
2022-08-19T01:02:22.643Z,6.70
2022-08-19T01:06:24.740Z,7.10
2022-08-19T01:10:34.724Z,6.60
2022-08-19T01:14:41.017Z,3.07
2022-08-19T01:18:44.411Z,5.43
2022-08-19T01:22:48.339Z,4.27
2022-08-19T01:26:50.903Z,5.60
2022-08-19T01:30:55.092Z,4.37
2022-08-19T01:34:58.052Z,7.27
2022-08-19T01:39:02.686Z,2.73
2022-08-19T01:43:06.901Z,5.23
2022-08-19T01:47:10.747Z,4.10
2022-08-19T01:51:14.339Z,4.53
2022-08-19T01:55:19.599Z,3.43
2022-08-19T01:59:23.909Z,5.43
2022-08-19T02:03:26.389Z,4.00
2022-08-19T02:07:29.530Z,4.17
2022-08-19T02:11:34.648Z,4.87
2022-08-19T02:15:36.705Z,4.60
2022-08-19T02:19:38.985Z,6.07
2022-08-19T02:23:43.967Z,3.40
2022-08-19T02:27:46.386Z,5.30
2022-08-19T02:31:49.098Z,5.10
2022-08-19T02:35:53.152Z,4.47
2022-08-19T02:39:56.660Z,6.97
2022-08-19T02:44:30.052Z,4.90
2022-08-19T02:48:26.866Z,3.90
2022-08-19T02:52:29.504Z,11.27
2022-08-19T02:56:32.135Z,7.73
2022-08-19T03:00:34.568Z,4.90
2022-08-19T03:04:44.626Z,6.00
2022-08-19T03:08:49.775Z,4.30
2022-08-19T03:12:52.358Z,5.07
2022-08-19T03:16:54.781Z,4.50
2022-08-19T03:20:58.548Z,4.97
2022-08-19T03:25:00.701Z,5.53
2022-08-19T03:29:05.666Z,6.53
2022-08-19T03:33:10.698Z,6.80
2022-08-19T03:37:20.330Z,6.80
2022-08-19T03:41:34.259Z,5.97
2022-08-19T03:45:49.893Z,4.20
2022-08-19T03:49:52.594Z,4.57
2022-08-19T03:53:56.334Z,5.87
2022-08-19T03:57:59.728Z,4.90
2022-08-19T04:02:10.001Z,4.47
2022-08-19T04:06:14.552Z,3.50
2022-08-19T04:10:16.815Z,5.70
2022-08-19T04:14:22.072Z,6.97
2022-08-19T04:18:25.149Z,6.47
2022-08-19T04:22:27.372Z,4.70
2022-08-19T04:26:38.019Z,4.70
2022-08-19T04:30:42.805Z,4.53
2022-08-19T04:35:02.112Z,5.23
2022-08-19T04:39:12.218Z,5.10
2022-08-19T04:43:15.766Z,5.33
2022-08-19T04:47:17.951Z,6.83
2022-08-19T04:51:43.563Z,5.33
2022-08-19T04:55:46.034Z,6.50
2022-08-19T04:59:48.173Z,4.07
2022-08-19T05:03:50.505Z,4.73
2022-08-19T05:07:52.726Z,8.00
2022-08-19T05:11:54.687Z,5.97
2022-08-19T05:15:59.088Z,6.60
2022-08-19T05:20:20.587Z,8.23
2022-08-19T05:24:24.573Z,6.30
2022-08-19T05:28:28.731Z,6.47
2022-08-19T05:32:34.118Z,8.07
2022-08-19T05:36:42.883Z,8.37
2022-08-19T05:40:50.456Z,12.87
2022-08-19T05:44:53.129Z,13.90
2022-08-19T05:48:57.572Z,11.67
2022-08-19T05:52:59.694Z,10.63
2022-08-19T05:57:03.136Z,13.67
2022-08-19T06:01:10.629Z,11.33
2022-08-19T06:05:12.832Z,11.00
2022-08-19T06:09:15.400Z,13.83
2022-08-19T06:13:18.506Z,10.40
2022-08-19T06:17:21.006Z,10.97
2022-08-19T06:21:26.777Z,12.83
2022-08-19T06:25:30.599Z,10.10
2022-08-19T06:29:34.666Z,10.47
2022-08-19T06:33:38.372Z,11.73
2022-08-19T06:37:43.819Z,12.97
2022-08-19T06:41:52.462Z,14.30
2022-08-19T06:45:55.959Z,14.10
2022-08-19T06:50:05.616Z,13.37
2022-08-19T06:54:08.565Z,13.77
2022-08-19T06:58:21.967Z,13.93
2022-08-19T07:02:27.435Z,11.43
2022-08-19T07:06:43.962Z,9.83
2022-08-19T07:10:50.167Z,11.87
2022-08-19T07:14:53.339Z,13.07
2022-08-19T07:18:57.666Z,10.43
2022-08-19T07:23:00.740Z,9.43
2022-08-19T07:27:06.805Z,11.03
2022-08-19T07:31:23.863Z,10.57
2022-08-19T07:35:29.466Z,10.83
2022-08-19T07:39:34.385Z,8.57
2022-08-19T07:43:36.359Z,9.93
2022-08-19T07:47:48.935Z,8.93
2022-08-19T07:52:02.242Z,9.03
2022-08-19T07:56:06.235Z,7.93
2022-08-19T08:00:09.659Z,7.60
2022-08-19T08:04:33.089Z,9.60
2022-08-19T08:08:55.140Z,6.67
2022-08-19T08:13:09.055Z,8.00
2022-08-19T08:17:13.563Z,8.53
2022-08-19T08:21:15.768Z,7.50
2022-08-19T08:25:24.579Z,7.20
2022-08-19T08:29:34.885Z,7.50
2022-08-19T08:33:37.423Z,7.97
2022-08-19T08:37:40.408Z,7.80
2022-08-19T08:42:09.838Z,7.37
2022-08-19T08:46:44.660Z,4.57
2022-08-19T08:50:48.655Z,4.90
2022-08-19T08:54:55.936Z,5.07
2022-08-19T08:59:10.755Z,5.33
2022-08-19T09:03:32.079Z,5.27
2022-08-19T09:08:09.846Z,6.43
2022-08-19T09:12:43.419Z,6.75
2022-08-19T09:16:45.419Z,5.13
2022-08-19T09:20:49.279Z,4.30
2022-08-19T09:24:53.382Z,5.47
2022-08-19T09:28:57.752Z,4.63
2022-08-19T09:33:01.980Z,4.30
2022-08-19T09:37:04.187Z,6.90
2022-08-19T09:41:09.825Z,4.35
2022-08-19T09:45:12.017Z,4.85
2022-08-19T09:49:14.108Z,5.72
2022-08-19T09:53:16.836Z,5.32
2022-08-19T09:57:19.103Z,5.60
2022-08-19T10:01:27.459Z,5.45
2022-08-19T10:05:48.570Z,6.55
2022-08-19T10:09:52.011Z,6.57
2022-08-19T10:13:54.850Z,5.40
2022-08-19T10:17:57.224Z,5.77
2022-08-19T10:22:05.511Z,7.00
2022-08-19T10:26:18.230Z,5.63
2022-08-19T10:30:21.202Z,6.82
2022-08-19T10:34:27.991Z,5.83
2022-08-19T10:38:31.701Z,7.13
2022-08-19T10:42:36.497Z,6.63
2022-08-19T10:46:47.151Z,5.88
2022-08-19T10:51:09.898Z,6.47
2022-08-19T10:55:31.676Z,5.72
2022-08-19T10:59:36.123Z,8.20
2022-08-19T11:03:38.669Z,6.13
2022-08-19T11:07:41.871Z,6.68
2022-08-19T11:11:45.654Z,6.10
2022-08-19T11:15:48.489Z,6.35
2022-08-19T11:19:51.063Z,6.68
2022-08-19T11:23:56.987Z,6.93
2022-08-19T11:27:58.975Z,6.70
2022-08-19T11:32:02.587Z,6.93
2022-08-19T11:36:05.257Z,6.07
2022-08-19T11:40:08.431Z,6.93
2022-08-19T11:44:10.529Z,9.02
2022-08-19T11:48:12.728Z,6.55
2022-08-19T11:52:15.389Z,8.25
2022-08-19T11:56:18.580Z,7.75
2022-08-19T12:00:20.772Z,7.60
2022-08-19T12:04:23.870Z,6.65
2022-08-19T12:08:26.102Z,6.82
2022-08-19T12:12:29.296Z,8.10
2022-08-19T12:16:33.670Z,6.68
2022-08-19T12:20:38.302Z,7.13
2022-08-19T12:24:40.738Z,6.32
2022-08-19T12:28:43.472Z,6.45
2022-08-19T12:32:45.910Z,5.78
2022-08-19T12:36:50.701Z,7.00
2022-08-19T12:40:55.965Z,6.32
2022-08-19T12:45:00.515Z,6.43
2022-08-19T12:49:17.923Z,6.65
2022-08-19T12:53:27.072Z,9.07
2022-08-19T12:57:33.486Z,6.18
2022-08-19T13:01:35.868Z,6.97
2022-08-19T13:05:38.069Z,8.27
2022-08-19T13:09:43.643Z,6.40
2022-08-19T13:13:48.615Z,7.05
2022-08-19T13:17:53.769Z,11.85
2022-08-19T13:22:00.353Z,6.82
2022-08-19T13:26:08.345Z,6.57
2022-08-19T13:30:33.313Z,7.30
2022-08-19T13:34:36.915Z,8.50
2022-08-19T13:38:39.077Z,7.10
2022-08-19T13:42:41.652Z,7.73
2022-08-19T13:46:45.686Z,7.40
2022-08-19T13:50:49.568Z,8.83
2022-08-19T13:54:51.687Z,6.97
2022-08-19T13:58:54.653Z,6.87
2022-08-19T14:02:57.749Z,6.60
2022-08-19T14:07:05.437Z,12.13
2022-08-19T14:11:07.752Z,7.30
2022-08-19T14:15:12.087Z,7.17
2022-08-19T14:19:16.206Z,7.90
2022-08-19T14:23:19.002Z,7.33
2022-08-19T14:27:21.281Z,8.80
2022-08-19T14:31:30.270Z,8.37
2022-08-19T14:35:38.554Z,8.13
2022-08-19T14:39:43.067Z,7.73
2022-08-19T14:43:47.598Z,6.53
2022-08-19T14:47:49.869Z,9.13
2022-08-19T14:51:56.042Z,8.68
2022-08-19T14:55:58.420Z,7.57
2022-08-19T15:00:00.647Z,7.53
2022-08-19T15:04:03.151Z,11.13
2022-08-19T15:08:05.587Z,9.73
2022-08-19T15:12:08.175Z,7.63
2022-08-19T15:16:17.645Z,9.98
2022-08-19T15:20:25.433Z,8.13
2022-08-19T15:24:28.212Z,8.85
2022-08-19T15:28:32.312Z,11.90
2022-08-19T15:32:34.510Z,7.20
2022-08-19T15:36:36.920Z,7.32
2022-08-19T15:40:39.126Z,11.50
2022-08-19T15:44:41.303Z,4.97
2022-08-19T15:48:43.579Z,9.83
2022-08-19T15:52:50.479Z,7.88
2022-08-19T15:57:11.284Z,10.45
2022-08-19T16:01:48.775Z,6.00
2022-08-19T16:06:10.872Z,7.75
2022-08-19T16:10:26.653Z,7.40
2022-08-19T16:14:35.365Z,6.63
2022-08-19T16:18:38.880Z,6.87
2022-08-19T16:22:41.187Z,8.47
2022-08-19T16:26:44.952Z,6.33
2022-08-19T16:30:48.485Z,9.60
2022-08-19T16:34:53.501Z,7.90
2022-08-19T16:38:55.724Z,7.07
2022-08-19T16:42:57.981Z,6.10
2022-08-19T16:47:00.641Z,8.43
2022-08-19T16:51:09.445Z,5.87
2022-08-19T16:55:11.928Z,6.37
2022-08-19T16:59:15.405Z,9.33
2022-08-19T17:03:19.819Z,10.40
2022-08-19T17:07:39.165Z,8.37
2022-08-19T17:11:42.739Z,4.97
2022-08-19T17:15:44.799Z,4.17
2022-08-19T17:19:47.778Z,4.40
2022-08-19T17:23:50.618Z,4.80
2022-08-19T17:27:53.209Z,3.07
2022-08-19T17:31:55.940Z,3.33
2022-08-19T17:35:58.191Z,1.90
2022-08-19T17:40:02.958Z,1.43
2022-08-19T17:44:05.591Z,2.77
2022-08-19T17:48:09.263Z,1.97
2022-08-19T17:52:12.012Z,1.07
2022-08-19T17:56:14.432Z,0.67
2022-08-19T18:00:18.514Z,0.53
2022-08-19T18:04:22.599Z,1.20
2022-08-19T18:08:24.842Z,1.90
2022-08-19T18:12:27.119Z,3.07
2022-08-19T18:16:32.609Z,6.40
2022-08-19T18:20:34.663Z,2.80
2022-08-19T18:24:42.946Z,1.23
2022-08-19T18:28:50.024Z,1.03
2022-08-19T18:32:53.455Z,1.27
2022-08-19T18:36:55.947Z,1.07
2022-08-19T18:41:16.865Z,1.50
2022-08-19T18:45:37.512Z,2.10
2022-08-19T18:49:41.253Z,2.73
2022-08-19T18:53:45.983Z,3.53
2022-08-19T18:57:50.627Z,1.63
2022-08-19T19:01:59.780Z,2.20
2022-08-19T19:06:03.873Z,1.90
2022-08-19T19:10:07.750Z,1.53
2022-08-19T19:14:23.183Z,1.97
2022-08-19T19:18:34.899Z,1.03
2022-08-19T19:22:37.155Z,1.90
2022-08-19T19:26:39.487Z,1.97
2022-08-19T19:30:41.837Z,1.07
2022-08-19T19:34:44.404Z,1.03
2022-08-19T19:38:48.869Z,1.63
2022-08-19T19:42:52.602Z,0.80
2022-08-19T19:46:55.911Z,1.00
2022-08-19T19:50:58.478Z,1.00
2022-08-19T19:55:05.331Z,1.40
2022-08-19T19:59:08.655Z,0.90
2022-08-19T20:03:11.210Z,2.20
2022-08-19T20:07:13.672Z,0.63
2022-08-19T20:11:31.367Z,0.70
2022-08-19T20:15:36.912Z,1.67
2022-08-19T20:19:41.698Z,0.90
2022-08-19T20:23:44.533Z,2.10
2022-08-19T20:28:06.564Z,2.27
2022-08-19T20:32:10.383Z,1.00
2022-08-19T20:36:12.647Z,1.13
2022-08-19T20:40:16.927Z,0.97
2022-08-19T20:44:25.715Z,1.17
2022-08-19T20:48:27.849Z,2.37
2022-08-19T20:52:29.927Z,0.60
2022-08-19T20:56:32.695Z,1.10
2022-08-19T21:00:34.999Z,1.87
2022-08-19T21:04:37.271Z,2.27
2022-08-19T21:08:40.417Z,1.77
2022-08-19T21:12:44.560Z,2.57
2022-08-19T21:16:47.262Z,1.60
2022-08-19T21:20:50.789Z,1.60
2022-08-19T21:24:52.820Z,1.57
2022-08-19T21:28:55.056Z,2.43
2022-08-19T21:32:57.286Z,2.30
2022-08-19T21:36:59.466Z,2.90
2022-08-19T21:41:03.568Z,2.17
2022-08-19T21:45:08.366Z,2.23
2022-08-19T21:49:10.439Z,2.30
2022-08-19T21:53:17.302Z,2.47
2022-08-19T21:57:19.965Z,2.73
2022-08-19T22:01:22.005Z,2.37
2022-08-19T22:05:25.831Z,2.60
2022-08-19T22:09:27.959Z,2.97
2022-08-19T22:13:39.111Z,3.13
2022-08-19T22:17:42.728Z,2.60
2022-08-19T22:21:45.243Z,2.50
2022-08-19T22:25:48.007Z,3.33
2022-08-19T22:29:52.543Z,3.07
2022-08-19T22:33:55.705Z,4.23
2022-08-19T22:37:59.082Z,2.30
2022-08-19T22:42:01.092Z,3.60
2022-08-19T22:46:03.495Z,2.53
2022-08-19T22:50:07.074Z,3.50
2022-08-19T22:54:16.717Z,2.93
2022-08-19T22:58:25.610Z,3.50
2022-08-19T23:02:34.734Z,2.27
2022-08-19T23:06:40.238Z,2.93
2022-08-19T23:10:44.249Z,2.97
2022-08-19T23:14:46.655Z,2.00
2022-08-19T23:18:48.913Z,2.30
2022-08-19T23:22:59.376Z,2.83
2022-08-19T23:27:20.262Z,2.83
2022-08-19T23:31:22.646Z,2.87
2022-08-19T23:35:27.486Z,3.73
2022-08-19T23:39:30.012Z,3.50
2022-08-19T23:43:33.971Z,4.33
2022-08-19T23:47:36.414Z,4.30
2022-08-19T23:51:43.056Z,4.10
2022-08-19T23:55:47.327Z,5.20
2022-08-19T23:59:49.963Z,4.27
